sensor_id;sensor_type;location;lat;lon;timestamp;P1;durP1;ratioP1;P2;durP2;ratioP2
18360;SDS011;9308;48.550;9.108;2023-03-01T00:01:24;21.90;;;19.03;;
18360;SDS011;9308;48.550;9.108;2023-03-01T00:03:52;21.73;;;19.53;;
18360;SDS011;9308;48.550;9.108;2023-03-01T00:06:18;21.67;;;17.80;;
18360;SDS011;9308;48.550;9.108;2023-03-01T00:08:45;20.80;;;18.50;;
18360;SDS011;9308;48.550;9.108;2023-03-01T00:11:21;22.57;;;20.23;;
18360;SDS011;9308;48.550;9.108;2023-03-01T00:13:50;21.70;;;19.40;;
18360;SDS011;9308;48.550;9.108;2023-03-01T00:16:18;23.10;;;20.50;;
18360;SDS011;9308;48.550;9.108;2023-03-01T00:18:46;22.90;;;20.50;;
18360;SDS011;9308;48.550;9.108;2023-03-01T00:21:11;20.50;;;18.40;;
18360;SDS011;9308;48.550;9.108;2023-03-01T00:23:37;21.73;;;19.47;;
18360;SDS011;9308;48.550;9.108;2023-03-01T00:26:07;20.50;;;18.27;;
18360;SDS011;9308;48.550;9.108;2023-03-01T00:28:35;23.53;;;20.57;;
18360;SDS011;9308;48.550;9.108;2023-03-01T00:31:07;20.97;;;18.77;;
18360;SDS011;9308;48.550;9.108;2023-03-01T00:33:34;21.63;;;19.33;;
18360;SDS011;9308;48.550;9.108;2023-03-01T00:36:00;22.10;;;19.87;;
18360;SDS011;9308;48.550;9.108;2023-03-01T00:38:26;22.63;;;20.20;;
18360;SDS011;9308;48.550;9.108;2023-03-01T00:40:51;22.20;;;19.27;;
18360;SDS011;9308;48.550;9.108;2023-03-01T00:43:17;21.37;;;19.17;;
18360;SDS011;9308;48.550;9.108;2023-03-01T00:45:42;22.60;;;20.40;;
18360;SDS011;9308;48.550;9.108;2023-03-01T00:48:08;22.40;;;20.10;;
18360;SDS011;9308;48.550;9.108;2023-03-01T00:50:33;21.57;;;19.37;;
18360;SDS011;9308;48.550;9.108;2023-03-01T00:52:59;21.73;;;19.43;;
18360;SDS011;9308;48.550;9.108;2023-03-01T00:55:24;22.77;;;19.90;;
18360;SDS011;9308;48.550;9.108;2023-03-01T00:57:50;24.67;;;21.10;;
18360;SDS011;9308;48.550;9.108;2023-03-01T01:00:16;23.37;;;20.87;;
18360;SDS011;9308;48.550;9.108;2023-03-01T01:02:42;22.53;;;20.00;;
18360;SDS011;9308;48.550;9.108;2023-03-01T01:05:07;21.53;;;19.27;;
18360;SDS011;9308;48.550;9.108;2023-03-01T01:07:33;22.70;;;20.30;;
18360;SDS011;9308;48.550;9.108;2023-03-01T01:09:58;22.53;;;20.23;;
18360;SDS011;9308;48.550;9.108;2023-03-01T01:12:24;21.90;;;19.50;;
18360;SDS011;9308;48.550;9.108;2023-03-01T01:14:49;21.47;;;19.23;;
18360;SDS011;9308;48.550;9.108;2023-03-01T01:17:15;22.07;;;19.80;;
18360;SDS011;9308;48.550;9.108;2023-03-01T01:19:40;23.30;;;20.83;;
18360;SDS011;9308;48.550;9.108;2023-03-01T01:22:06;23.40;;;21.10;;
18360;SDS011;9308;48.550;9.108;2023-03-01T01:24:32;23.27;;;20.70;;
18360;SDS011;9308;48.550;9.108;2023-03-01T01:26:57;22.67;;;20.00;;
18360;SDS011;9308;48.550;9.108;2023-03-01T01:29:23;22.50;;;20.07;;
18360;SDS011;9308;48.550;9.108;2023-03-01T01:31:48;22.00;;;19.57;;
18360;SDS011;9308;48.550;9.108;2023-03-01T01:34:15;24.03;;;21.20;;
18360;SDS011;9308;48.550;9.108;2023-03-01T01:36:42;22.70;;;19.90;;
18360;SDS011;9308;48.550;9.108;2023-03-01T01:39:08;23.40;;;20.63;;
18360;SDS011;9308;48.550;9.108;2023-03-01T01:41:38;22.90;;;19.97;;
18360;SDS011;9308;48.550;9.108;2023-03-01T01:44:19;23.43;;;19.70;;
18360;SDS011;9308;48.550;9.108;2023-03-01T01:49:24;24.40;;;21.77;;
18360;SDS011;9308;48.550;9.108;2023-03-01T01:51:51;26.17;;;21.90;;
18360;SDS011;9308;48.550;9.108;2023-03-01T01:54:26;23.60;;;21.30;;
18360;SDS011;9308;48.550;9.108;2023-03-01T01:56:59;23.83;;;21.43;;
18360;SDS011;9308;48.550;9.108;2023-03-01T01:59:28;23.63;;;21.27;;
18360;SDS011;9308;48.550;9.108;2023-03-01T02:01:55;25.70;;;22.17;;
18360;SDS011;9308;48.550;9.108;2023-03-01T02:04:24;23.20;;;20.73;;
18360;SDS011;9308;48.550;9.108;2023-03-01T02:09:49;24.10;;;21.03;;
18360;SDS011;9308;48.550;9.108;2023-03-01T02:12:18;23.67;;;21.30;;
18360;SDS011;9308;48.550;9.108;2023-03-01T02:14:45;24.67;;;21.37;;
18360;SDS011;9308;48.550;9.108;2023-03-01T02:17:11;25.47;;;21.53;;
18360;SDS011;9308;48.550;9.108;2023-03-01T02:19:43;23.07;;;20.73;;
18360;SDS011;9308;48.550;9.108;2023-03-01T02:22:22;24.20;;;21.23;;
18360;SDS011;9308;48.550;9.108;2023-03-01T02:24:57;23.37;;;20.87;;
18360;SDS011;9308;48.550;9.108;2023-03-01T02:30:17;26.43;;;21.70;;
18360;SDS011;9308;48.550;9.108;2023-03-01T02:32:44;25.93;;;21.77;;
18360;SDS011;9308;48.550;9.108;2023-03-01T02:35:10;24.13;;;21.63;;
18360;SDS011;9308;48.550;9.108;2023-03-01T02:37:38;25.07;;;21.63;;
18360;SDS011;9308;48.550;9.108;2023-03-01T02:40:06;24.13;;;21.63;;
18360;SDS011;9308;48.550;9.108;2023-03-01T02:42:38;24.00;;;21.50;;
18360;SDS011;9308;48.550;9.108;2023-03-01T02:45:12;23.53;;;19.90;;
18360;SDS011;9308;48.550;9.108;2023-03-01T02:47:37;22.57;;;20.20;;
18360;SDS011;9308;48.550;9.108;2023-03-01T02:50:08;24.13;;;21.20;;
18360;SDS011;9308;48.550;9.108;2023-03-01T02:52:57;23.33;;;20.80;;
18360;SDS011;9308;48.550;9.108;2023-03-01T02:55:31;24.53;;;21.73;;
18360;SDS011;9308;48.550;9.108;2023-03-01T02:57:57;25.63;;;22.13;;
18360;SDS011;9308;48.550;9.108;2023-03-01T03:00:28;23.63;;;21.13;;
18360;SDS011;9308;48.550;9.108;2023-03-01T03:03:05;25.47;;;22.20;;
18360;SDS011;9308;48.550;9.108;2023-03-01T03:05:31;25.80;;;22.10;;
18360;SDS011;9308;48.550;9.108;2023-03-01T03:07:58;26.27;;;22.03;;
18360;SDS011;9308;48.550;9.108;2023-03-01T03:10:25;23.17;;;20.87;;
18360;SDS011;9308;48.550;9.108;2023-03-01T03:12:54;24.93;;;22.23;;
18360;SDS011;9308;48.550;9.108;2023-03-01T03:15:22;26.07;;;21.57;;
18360;SDS011;9308;48.550;9.108;2023-03-01T03:17:48;26.90;;;21.87;;
18360;SDS011;9308;48.550;9.108;2023-03-01T03:20:15;24.97;;;22.30;;
18360;SDS011;9308;48.550;9.108;2023-03-01T03:22:50;22.90;;;20.47;;
18360;SDS011;9308;48.550;9.108;2023-03-01T03:25:17;23.23;;;20.90;;
18360;SDS011;9308;48.550;9.108;2023-03-01T03:27:44;24.13;;;21.60;;
18360;SDS011;9308;48.550;9.108;2023-03-01T03:30:12;25.30;;;22.27;;
18360;SDS011;9308;48.550;9.108;2023-03-01T03:32:43;25.80;;;23.10;;
18360;SDS011;9308;48.550;9.108;2023-03-01T03:35:17;26.27;;;23.60;;
18360;SDS011;9308;48.550;9.108;2023-03-01T03:37:44;24.67;;;22.07;;
18360;SDS011;9308;48.550;9.108;2023-03-01T03:40:29;24.83;;;21.43;;
18360;SDS011;9308;48.550;9.108;2023-03-01T03:42:55;27.03;;;23.30;;
18360;SDS011;9308;48.550;9.108;2023-03-01T03:45:21;24.87;;;21.77;;
18360;SDS011;9308;48.550;9.108;2023-03-01T03:47:46;23.90;;;21.20;;
18360;SDS011;9308;48.550;9.108;2023-03-01T03:50:12;26.87;;;23.20;;
18360;SDS011;9308;48.550;9.108;2023-03-01T03:52:40;25.47;;;22.77;;
18360;SDS011;9308;48.550;9.108;2023-03-01T03:55:06;24.23;;;21.20;;
18360;SDS011;9308;48.550;9.108;2023-03-01T03:57:42;26.20;;;21.83;;
18360;SDS011;9308;48.550;9.108;2023-03-01T04:00:09;25.47;;;22.83;;
18360;SDS011;9308;48.550;9.108;2023-03-01T04:02:40;27.33;;;23.13;;
18360;SDS011;9308;48.550;9.108;2023-03-01T04:05:06;24.97;;;22.00;;
18360;SDS011;9308;48.550;9.108;2023-03-01T04:07:34;26.40;;;22.60;;
18360;SDS011;9308;48.550;9.108;2023-03-01T04:10:04;26.07;;;22.97;;
18360;SDS011;9308;48.550;9.108;2023-03-01T04:12:32;23.77;;;21.37;;
18360;SDS011;9308;48.550;9.108;2023-03-01T04:14:59;25.63;;;22.93;;
18360;SDS011;9308;48.550;9.108;2023-03-01T04:17:40;27.30;;;23.43;;
18360;SDS011;9308;48.550;9.108;2023-03-01T04:20:08;28.13;;;22.70;;
18360;SDS011;9308;48.550;9.108;2023-03-01T04:22:38;27.03;;;23.40;;
18360;SDS011;9308;48.550;9.108;2023-03-01T04:25:05;25.33;;;21.43;;
18360;SDS011;9308;48.550;9.108;2023-03-01T04:27:34;26.00;;;23.30;;
18360;SDS011;9308;48.550;9.108;2023-03-01T04:30:00;24.53;;;21.93;;
18360;SDS011;9308;48.550;9.108;2023-03-01T04:32:27;25.67;;;22.97;;
18360;SDS011;9308;48.550;9.108;2023-03-01T04:34:52;25.23;;;22.23;;
18360;SDS011;9308;48.550;9.108;2023-03-01T04:37:18;25.33;;;22.60;;
18360;SDS011;9308;48.550;9.108;2023-03-01T04:39:43;26.50;;;22.57;;
18360;SDS011;9308;48.550;9.108;2023-03-01T04:42:12;27.73;;;24.70;;
18360;SDS011;9308;48.550;9.108;2023-03-01T04:44:37;25.93;;;22.23;;
18360;SDS011;9308;48.550;9.108;2023-03-01T04:47:03;25.80;;;22.90;;
18360;SDS011;9308;48.550;9.108;2023-03-01T04:49:28;26.07;;;23.23;;
18360;SDS011;9308;48.550;9.108;2023-03-01T04:51:54;26.37;;;23.47;;
18360;SDS011;9308;48.550;9.108;2023-03-01T04:54:20;27.03;;;23.80;;
18360;SDS011;9308;48.550;9.108;2023-03-01T04:56:45;29.40;;;22.93;;
18360;SDS011;9308;48.550;9.108;2023-03-01T04:59:11;28.07;;;24.37;;
18360;SDS011;9308;48.550;9.108;2023-03-01T05:01:37;28.73;;;24.27;;
18360;SDS011;9308;48.550;9.108;2023-03-01T05:04:03;26.47;;;23.20;;
18360;SDS011;9308;48.550;9.108;2023-03-01T05:06:30;25.63;;;22.93;;
18360;SDS011;9308;48.550;9.108;2023-03-01T05:08:56;29.47;;;25.37;;
18360;SDS011;9308;48.550;9.108;2023-03-01T05:11:22;26.87;;;23.77;;
18360;SDS011;9308;48.550;9.108;2023-03-01T05:13:47;25.37;;;21.80;;
18360;SDS011;9308;48.550;9.108;2023-03-01T05:16:15;26.93;;;23.97;;
18360;SDS011;9308;48.550;9.108;2023-03-01T05:18:41;27.90;;;23.67;;
18360;SDS011;9308;48.550;9.108;2023-03-01T05:21:09;30.40;;;23.53;;
18360;SDS011;9308;48.550;9.108;2023-03-01T05:23:37;26.17;;;23.37;;
18360;SDS011;9308;48.550;9.108;2023-03-01T05:26:03;24.93;;;22.33;;
18360;SDS011;9308;48.550;9.108;2023-03-01T05:28:31;25.93;;;23.10;;
18360;SDS011;9308;48.550;9.108;2023-03-01T05:30:57;27.00;;;24.10;;
18360;SDS011;9308;48.550;9.108;2023-03-01T05:33:23;28.10;;;23.87;;
18360;SDS011;9308;48.550;9.108;2023-03-01T05:35:49;26.60;;;23.80;;
18360;SDS011;9308;48.550;9.108;2023-03-01T05:38:17;26.17;;;23.37;;
18360;SDS011;9308;48.550;9.108;2023-03-01T05:40:43;26.43;;;23.53;;
18360;SDS011;9308;48.550;9.108;2023-03-01T05:43:12;26.53;;;23.73;;
18360;SDS011;9308;48.550;9.108;2023-03-01T05:45:38;29.03;;;23.90;;
18360;SDS011;9308;48.550;9.108;2023-03-01T05:48:05;27.90;;;24.90;;
18360;SDS011;9308;48.550;9.108;2023-03-01T05:50:33;27.53;;;24.57;;
18360;SDS011;9308;48.550;9.108;2023-03-01T05:53:04;27.33;;;24.27;;
18360;SDS011;9308;48.550;9.108;2023-03-01T05:55:33;26.60;;;22.90;;
18360;SDS011;9308;48.550;9.108;2023-03-01T05:58:03;28.40;;;24.40;;
18360;SDS011;9308;48.550;9.108;2023-03-01T06:00:30;28.90;;;24.90;;
18360;SDS011;9308;48.550;9.108;2023-03-01T06:02:56;30.40;;;25.67;;
18360;SDS011;9308;48.550;9.108;2023-03-01T06:05:23;26.77;;;22.53;;
18360;SDS011;9308;48.550;9.108;2023-03-01T06:07:49;31.70;;;25.17;;
18360;SDS011;9308;48.550;9.108;2023-03-01T06:10:16;27.70;;;24.70;;
18360;SDS011;9308;48.550;9.108;2023-03-01T06:12:42;27.90;;;24.30;;
18360;SDS011;9308;48.550;9.108;2023-03-01T06:15:09;26.57;;;23.67;;
18360;SDS011;9308;48.550;9.108;2023-03-01T06:17:37;27.30;;;24.37;;
18360;SDS011;9308;48.550;9.108;2023-03-01T06:20:05;30.40;;;25.90;;
18360;SDS011;9308;48.550;9.108;2023-03-01T06:22:35;27.60;;;24.63;;
18360;SDS011;9308;48.550;9.108;2023-03-01T06:25:01;25.20;;;22.37;;
18360;SDS011;9308;48.550;9.108;2023-03-01T06:27:27;26.00;;;23.17;;
18360;SDS011;9308;48.550;9.108;2023-03-01T06:29:52;27.93;;;23.60;;
18360;SDS011;9308;48.550;9.108;2023-03-01T06:32:17;28.53;;;24.00;;
18360;SDS011;9308;48.550;9.108;2023-03-01T06:34:43;29.90;;;23.20;;
18360;SDS011;9308;48.550;9.108;2023-03-01T06:37:09;26.40;;;23.70;;
18360;SDS011;9308;48.550;9.108;2023-03-01T06:39:35;28.20;;;24.17;;
18360;SDS011;9308;48.550;9.108;2023-03-01T06:42:00;29.47;;;24.20;;
18360;SDS011;9308;48.550;9.108;2023-03-01T06:44:26;29.70;;;25.97;;
18360;SDS011;9308;48.550;9.108;2023-03-01T06:46:51;28.83;;;25.37;;
18360;SDS011;9308;48.550;9.108;2023-03-01T06:49:17;27.43;;;24.53;;
18360;SDS011;9308;48.550;9.108;2023-03-01T06:51:43;29.10;;;24.10;;
18360;SDS011;9308;48.550;9.108;2023-03-01T06:54:09;30.47;;;25.30;;
18360;SDS011;9308;48.550;9.108;2023-03-01T06:56:35;27.00;;;24.07;;
18360;SDS011;9308;48.550;9.108;2023-03-01T06:59:01;29.57;;;25.63;;
18360;SDS011;9308;48.550;9.108;2023-03-01T07:01:28;29.67;;;25.80;;
18360;SDS011;9308;48.550;9.108;2023-03-01T07:03:54;26.77;;;23.73;;
18360;SDS011;9308;48.550;9.108;2023-03-01T07:06:19;27.57;;;24.60;;
18360;SDS011;9308;48.550;9.108;2023-03-01T07:08:45;30.90;;;25.10;;
18360;SDS011;9308;48.550;9.108;2023-03-01T07:11:10;27.43;;;23.93;;
18360;SDS011;9308;48.550;9.108;2023-03-01T07:13:36;27.13;;;24.23;;
18360;SDS011;9308;48.550;9.108;2023-03-01T07:16:01;25.93;;;23.17;;
18360;SDS011;9308;48.550;9.108;2023-03-01T07:18:26;27.60;;;24.30;;
18360;SDS011;9308;48.550;9.108;2023-03-01T07:20:52;29.47;;;26.30;;
18360;SDS011;9308;48.550;9.108;2023-03-01T07:23:17;29.07;;;26.03;;
18360;SDS011;9308;48.550;9.108;2023-03-01T07:25:43;27.40;;;24.40;;
18360;SDS011;9308;48.550;9.108;2023-03-01T07:28:09;27.23;;;24.03;;
18360;SDS011;9308;48.550;9.108;2023-03-01T07:30:34;26.93;;;23.87;;
18360;SDS011;9308;48.550;9.108;2023-03-01T07:32:59;28.83;;;24.57;;
18360;SDS011;9308;48.550;9.108;2023-03-01T07:35:25;27.70;;;24.80;;
18360;SDS011;9308;48.550;9.108;2023-03-01T07:37:52;27.40;;;23.87;;
18360;SDS011;9308;48.550;9.108;2023-03-01T07:40:18;28.63;;;25.10;;
18360;SDS011;9308;48.550;9.108;2023-03-01T07:42:44;29.20;;;25.20;;
18360;SDS011;9308;48.550;9.108;2023-03-01T07:45:09;26.93;;;23.90;;
18360;SDS011;9308;48.550;9.108;2023-03-01T07:47:35;27.00;;;24.13;;
18360;SDS011;9308;48.550;9.108;2023-03-01T07:50:02;27.60;;;23.77;;
18360;SDS011;9308;48.550;9.108;2023-03-01T07:52:29;28.50;;;25.40;;
18360;SDS011;9308;48.550;9.108;2023-03-01T07:54:54;28.13;;;25.13;;
18360;SDS011;9308;48.550;9.108;2023-03-01T07:57:20;26.40;;;23.63;;
18360;SDS011;9308;48.550;9.108;2023-03-01T07:59:45;28.03;;;24.60;;
18360;SDS011;9308;48.550;9.108;2023-03-01T08:02:11;30.13;;;24.10;;
18360;SDS011;9308;48.550;9.108;2023-03-01T08:04:36;27.57;;;24.30;;
18360;SDS011;9308;48.550;9.108;2023-03-01T08:07:04;25.87;;;22.93;;
18360;SDS011;9308;48.550;9.108;2023-03-01T08:09:30;29.10;;;25.27;;
18360;SDS011;9308;48.550;9.108;2023-03-01T08:11:56;30.03;;;25.33;;
18360;SDS011;9308;48.550;9.108;2023-03-01T08:14:22;28.90;;;24.10;;
18360;SDS011;9308;48.550;9.108;2023-03-01T08:16:50;29.57;;;25.17;;
18360;SDS011;9308;48.550;9.108;2023-03-01T08:19:16;27.70;;;24.20;;
18360;SDS011;9308;48.550;9.108;2023-03-01T08:21:42;27.07;;;24.17;;
18360;SDS011;9308;48.550;9.108;2023-03-01T08:24:07;27.20;;;24.20;;
18360;SDS011;9308;48.550;9.108;2023-03-01T08:26:35;28.77;;;25.00;;
18360;SDS011;9308;48.550;9.108;2023-03-01T08:29:01;29.97;;;25.10;;
18360;SDS011;9308;48.550;9.108;2023-03-01T08:31:28;26.20;;;23.40;;
18360;SDS011;9308;48.550;9.108;2023-03-01T08:33:58;27.47;;;24.40;;
18360;SDS011;9308;48.550;9.108;2023-03-01T08:36:29;29.07;;;24.60;;
18360;SDS011;9308;48.550;9.108;2023-03-01T08:38:56;28.80;;;25.20;;
18360;SDS011;9308;48.550;9.108;2023-03-01T08:41:21;26.80;;;23.90;;
18360;SDS011;9308;48.550;9.108;2023-03-01T08:43:47;27.33;;;23.70;;
18360;SDS011;9308;48.550;9.108;2023-03-01T08:46:13;27.90;;;23.53;;
18360;SDS011;9308;48.550;9.108;2023-03-01T08:48:39;28.17;;;24.73;;
18360;SDS011;9308;48.550;9.108;2023-03-01T08:51:09;26.27;;;23.37;;
18360;SDS011;9308;48.550;9.108;2023-03-01T08:53:35;29.07;;;25.43;;
18360;SDS011;9308;48.550;9.108;2023-03-01T08:56:01;31.70;;;24.30;;
18360;SDS011;9308;48.550;9.108;2023-03-01T08:58:29;27.63;;;24.53;;
18360;SDS011;9308;48.550;9.108;2023-03-01T09:00:55;29.73;;;24.37;;
18360;SDS011;9308;48.550;9.108;2023-03-01T09:03:22;27.67;;;23.40;;
18360;SDS011;9308;48.550;9.108;2023-03-01T09:05:49;28.90;;;24.47;;
18360;SDS011;9308;48.550;9.108;2023-03-01T09:08:16;26.87;;;23.33;;
18360;SDS011;9308;48.550;9.108;2023-03-01T09:10:42;28.53;;;22.27;;
18360;SDS011;9308;48.550;9.108;2023-03-01T09:13:07;27.07;;;23.27;;
18360;SDS011;9308;48.550;9.108;2023-03-01T09:15:33;26.70;;;22.40;;
18360;SDS011;9308;48.550;9.108;2023-03-01T09:17:59;27.80;;;23.30;;
18360;SDS011;9308;48.550;9.108;2023-03-01T09:20:24;31.27;;;23.17;;
18360;SDS011;9308;48.550;9.108;2023-03-01T09:22:50;27.43;;;24.40;;
18360;SDS011;9308;48.550;9.108;2023-03-01T09:25:15;24.43;;;21.77;;
18360;SDS011;9308;48.550;9.108;2023-03-01T09:27:41;25.20;;;22.47;;
18360;SDS011;9308;48.550;9.108;2023-03-01T09:30:07;26.07;;;23.27;;
18360;SDS011;9308;48.550;9.108;2023-03-01T09:32:33;26.80;;;22.97;;
18360;SDS011;9308;48.550;9.108;2023-03-01T09:34:58;27.73;;;23.77;;
18360;SDS011;9308;48.550;9.108;2023-03-01T09:37:29;25.00;;;21.97;;
18360;SDS011;9308;48.550;9.108;2023-03-01T09:39:54;28.60;;;22.50;;
18360;SDS011;9308;48.550;9.108;2023-03-01T09:42:20;27.77;;;22.27;;
18360;SDS011;9308;48.550;9.108;2023-03-01T09:44:56;26.50;;;23.30;;
18360;SDS011;9308;48.550;9.108;2023-03-01T09:47:27;28.00;;;23.73;;
18360;SDS011;9308;48.550;9.108;2023-03-01T09:50:16;25.60;;;22.70;;
18360;SDS011;9308;48.550;9.108;2023-03-01T09:55:48;26.77;;;23.27;;
18360;SDS011;9308;48.550;9.108;2023-03-01T10:04:00;26.30;;;22.30;;
18360;SDS011;9308;48.550;9.108;2023-03-01T10:06:33;27.50;;;22.50;;
18360;SDS011;9308;48.550;9.108;2023-03-01T10:09:00;22.80;;;20.30;;
18360;SDS011;9308;48.550;9.108;2023-03-01T10:11:32;26.00;;;22.50;;
18360;SDS011;9308;48.550;9.108;2023-03-01T10:14:04;23.87;;;21.03;;
18360;SDS011;9308;48.550;9.108;2023-03-01T10:16:40;27.73;;;22.30;;
18360;SDS011;9308;48.550;9.108;2023-03-01T10:19:25;25.10;;;20.77;;
18360;SDS011;9308;48.550;9.108;2023-03-01T10:21:57;27.20;;;22.87;;
18360;SDS011;9308;48.550;9.108;2023-03-01T10:24:30;23.93;;;21.37;;
18360;SDS011;9308;48.550;9.108;2023-03-01T10:27:01;23.77;;;20.17;;
18360;SDS011;9308;48.550;9.108;2023-03-01T10:29:46;25.80;;;21.27;;
18360;SDS011;9308;48.550;9.108;2023-03-01T10:32:38;23.30;;;20.80;;
18360;SDS011;9308;48.550;9.108;2023-03-01T10:40:31;22.20;;;19.63;;
18360;SDS011;9308;48.550;9.108;2023-03-01T10:42:58;27.07;;;22.33;;
18360;SDS011;9308;48.550;9.108;2023-03-01T10:45:31;25.90;;;20.17;;
18360;SDS011;9308;48.550;9.108;2023-03-01T10:48:16;23.80;;;20.90;;
18360;SDS011;9308;48.550;9.108;2023-03-01T10:56:03;24.00;;;20.37;;
18360;SDS011;9308;48.550;9.108;2023-03-01T10:58:29;24.53;;;21.70;;
18360;SDS011;9308;48.550;9.108;2023-03-01T11:00:56;23.93;;;21.33;;
18360;SDS011;9308;48.550;9.108;2023-03-01T11:03:37;24.13;;;21.57;;
18360;SDS011;9308;48.550;9.108;2023-03-01T11:06:05;23.63;;;20.77;;
18360;SDS011;9308;48.550;9.108;2023-03-01T11:08:38;26.50;;;21.60;;
18360;SDS011;9308;48.550;9.108;2023-03-01T11:13:34;22.90;;;20.40;;
18360;SDS011;9308;48.550;9.108;2023-03-01T11:16:01;23.30;;;19.90;;
18360;SDS011;9308;48.550;9.108;2023-03-01T11:18:37;22.50;;;20.10;;
18360;SDS011;9308;48.550;9.108;2023-03-01T11:21:02;20.27;;;18.07;;
18360;SDS011;9308;48.550;9.108;2023-03-01T11:23:29;24.23;;;20.03;;
18360;SDS011;9308;48.550;9.108;2023-03-01T11:25:56;22.23;;;18.63;;
18360;SDS011;9308;48.550;9.108;2023-03-01T11:28:25;24.87;;;20.70;;
18360;SDS011;9308;48.550;9.108;2023-03-01T11:31:09;23.10;;;20.60;;
18360;SDS011;9308;48.550;9.108;2023-03-01T11:33:44;24.83;;;22.17;;
18360;SDS011;9308;48.550;9.108;2023-03-01T11:36:19;22.60;;;20.20;;
18360;SDS011;9308;48.550;9.108;2023-03-01T11:38:49;22.73;;;20.30;;
18360;SDS011;9308;48.550;9.108;2023-03-01T11:41:21;25.17;;;22.07;;
18360;SDS011;9308;48.550;9.108;2023-03-01T11:43:55;22.67;;;20.20;;
18360;SDS011;9308;48.550;9.108;2023-03-01T11:46:43;22.07;;;19.67;;
18360;SDS011;9308;48.550;9.108;2023-03-01T11:53:08;21.20;;;17.73;;
18360;SDS011;9308;48.550;9.108;2023-03-01T11:55:24;19.23;;;17.27;;
18360;SDS011;9308;48.550;9.108;2023-03-01T11:58:11;20.20;;;18.03;;
18360;SDS011;9308;48.550;9.108;2023-03-01T12:01:08;20.23;;;17.67;;
18360;SDS011;9308;48.550;9.108;2023-03-01T12:06:56;18.90;;;16.33;;
18360;SDS011;9308;48.550;9.108;2023-03-01T12:20:32;19.13;;;17.43;;
18360;SDS011;9308;48.550;9.108;2023-03-01T12:23:33;19.43;;;17.53;;
18360;SDS011;9308;48.550;9.108;2023-03-01T12:26:23;19.30;;;17.70;;
18360;SDS011;9308;48.550;9.108;2023-03-01T12:37:21;19.77;;;18.07;;
18360;SDS011;9308;48.550;9.108;2023-03-01T12:42:41;20.33;;;18.63;;
18360;SDS011;9308;48.550;9.108;2023-03-01T12:50:51;19.33;;;17.63;;
18360;SDS011;9308;48.550;9.108;2023-03-01T12:53:25;19.30;;;17.70;;
18360;SDS011;9308;48.550;9.108;2023-03-01T12:56:01;18.93;;;17.33;;
18360;SDS011;9308;48.550;9.108;2023-03-01T13:01:22;18.07;;;16.60;;
18360;SDS011;9308;48.550;9.108;2023-03-01T13:11:43;19.30;;;17.60;;
18360;SDS011;9308;48.550;9.108;2023-03-01T13:16:52;20.67;;;18.63;;
18360;SDS011;9308;48.550;9.108;2023-03-01T13:19:19;20.47;;;18.57;;
18360;SDS011;9308;48.550;9.108;2023-03-01T13:21:49;19.07;;;17.17;;
18360;SDS011;9308;48.550;9.108;2023-03-01T13:24:23;20.23;;;18.17;;
18360;SDS011;9308;48.550;9.108;2023-03-01T13:27:48;20.67;;;18.47;;
18360;SDS011;9308;48.550;9.108;2023-03-01T13:35:39;20.43;;;18.20;;
18360;SDS011;9308;48.550;9.108;2023-03-01T13:37:51;22.83;;;17.20;;
18360;SDS011;9308;48.550;9.108;2023-03-01T13:42:44;20.37;;;18.27;;
18360;SDS011;9308;48.550;9.108;2023-03-01T13:47:53;19.63;;;17.60;;
18360;SDS011;9308;48.550;9.108;2023-03-01T13:50:24;19.77;;;17.67;;
18360;SDS011;9308;48.550;9.108;2023-03-01T13:52:53;20.17;;;17.33;;
18360;SDS011;9308;48.550;9.108;2023-03-01T13:55:44;20.73;;;18.53;;
18360;SDS011;9308;48.550;9.108;2023-03-01T13:58:24;22.90;;;18.60;;
18360;SDS011;9308;48.550;9.108;2023-03-01T14:00:55;20.90;;;17.83;;
18360;SDS011;9308;48.550;9.108;2023-03-01T14:03:28;21.00;;;18.00;;
18360;SDS011;9308;48.550;9.108;2023-03-01T14:08:35;19.83;;;17.60;;
18360;SDS011;9308;48.550;9.108;2023-03-01T14:11:21;20.70;;;18.07;;
18360;SDS011;9308;48.550;9.108;2023-03-01T14:16:54;18.80;;;16.80;;
18360;SDS011;9308;48.550;9.108;2023-03-01T14:19:31;21.60;;;19.20;;
18360;SDS011;9308;48.550;9.108;2023-03-01T14:24:29;19.67;;;17.37;;
18360;SDS011;9308;48.550;9.108;2023-03-01T14:26:58;23.60;;;19.33;;
18360;SDS011;9308;48.550;9.108;2023-03-01T14:29:36;21.87;;;17.87;;
18360;SDS011;9308;48.550;9.108;2023-03-01T14:32:19;21.10;;;17.67;;
18360;SDS011;9308;48.550;9.108;2023-03-01T14:34:47;20.83;;;18.37;;
18360;SDS011;9308;48.550;9.108;2023-03-01T14:37:18;21.33;;;19.03;;
18360;SDS011;9308;48.550;9.108;2023-03-01T14:39:46;19.70;;;17.17;;
18360;SDS011;9308;48.550;9.108;2023-03-01T14:42:12;21.60;;;19.30;;
18360;SDS011;9308;48.550;9.108;2023-03-01T14:44:40;22.03;;;18.70;;
18360;SDS011;9308;48.550;9.108;2023-03-01T14:47:10;20.20;;;17.90;;
18360;SDS011;9308;48.550;9.108;2023-03-01T14:49:39;19.53;;;17.20;;
18360;SDS011;9308;48.550;9.108;2023-03-01T14:52:07;18.93;;;16.60;;
18360;SDS011;9308;48.550;9.108;2023-03-01T14:54:46;20.13;;;16.97;;
18360;SDS011;9308;48.550;9.108;2023-03-01T14:57:16;18.53;;;16.53;;
18360;SDS011;9308;48.550;9.108;2023-03-01T14:59:43;22.17;;;17.30;;
18360;SDS011;9308;48.550;9.108;2023-03-01T15:02:12;18.43;;;16.50;;
18360;SDS011;9308;48.550;9.108;2023-03-01T15:04:42;19.33;;;16.40;;
18360;SDS011;9308;48.550;9.108;2023-03-01T15:07:11;21.43;;;17.47;;
18360;SDS011;9308;48.550;9.108;2023-03-01T15:09:39;18.70;;;16.80;;
18360;SDS011;9308;48.550;9.108;2023-03-01T15:14:52;19.20;;;16.30;;
18360;SDS011;9308;48.550;9.108;2023-03-01T15:19:56;18.60;;;16.40;;
18360;SDS011;9308;48.550;9.108;2023-03-01T15:22:22;18.67;;;16.50;;
18360;SDS011;9308;48.550;9.108;2023-03-01T15:24:49;17.13;;;15.33;;
18360;SDS011;9308;48.550;9.108;2023-03-01T15:27:16;21.67;;;16.77;;
18360;SDS011;9308;48.550;9.108;2023-03-01T15:30:19;18.87;;;16.97;;
18360;SDS011;9308;48.550;9.108;2023-03-01T15:35:50;19.83;;;17.10;;
18360;SDS011;9308;48.550;9.108;2023-03-01T15:41:24;20.10;;;17.97;;
18360;SDS011;9308;48.550;9.108;2023-03-01T15:44:37;20.17;;;17.33;;
18360;SDS011;9308;48.550;9.108;2023-03-01T15:46:58;21.40;;;19.20;;
18360;SDS011;9308;48.550;9.108;2023-03-01T15:49:30;20.40;;;18.20;;
18360;SDS011;9308;48.550;9.108;2023-03-01T15:52:02;20.57;;;17.87;;
18360;SDS011;9308;48.550;9.108;2023-03-01T15:54:29;18.80;;;16.80;;
18360;SDS011;9308;48.550;9.108;2023-03-01T15:56:55;20.13;;;17.57;;
18360;SDS011;9308;48.550;9.108;2023-03-01T15:59:20;21.33;;;17.27;;
18360;SDS011;9308;48.550;9.108;2023-03-01T16:01:47;22.70;;;18.53;;
18360;SDS011;9308;48.550;9.108;2023-03-01T16:04:14;20.17;;;17.97;;
18360;SDS011;9308;48.550;9.108;2023-03-01T16:06:52;23.73;;;18.37;;
18360;SDS011;9308;48.550;9.108;2023-03-01T16:09:22;19.83;;;17.30;;
18360;SDS011;9308;48.550;9.108;2023-03-01T16:11:48;19.90;;;17.37;;
18360;SDS011;9308;48.550;9.108;2023-03-01T16:14:14;18.50;;;16.50;;
18360;SDS011;9308;48.550;9.108;2023-03-01T16:16:41;20.93;;;17.63;;
18360;SDS011;9308;48.550;9.108;2023-03-01T16:19:07;21.40;;;18.27;;
18360;SDS011;9308;48.550;9.108;2023-03-01T16:21:33;22.93;;;17.57;;
18360;SDS011;9308;48.550;9.108;2023-03-01T16:23:58;21.57;;;16.80;;
18360;SDS011;9308;48.550;9.108;2023-03-01T16:26:25;23.40;;;17.47;;
18360;SDS011;9308;48.550;9.108;2023-03-01T16:28:50;18.77;;;15.93;;
18360;SDS011;9308;48.550;9.108;2023-03-01T16:31:20;20.80;;;17.40;;
18360;SDS011;9308;48.550;9.108;2023-03-01T16:33:45;19.03;;;16.93;;